sensor_id;sensor_type;location;lat;lon;timestamp;temperature;humidity
23729;DHT22;12045;60.214;24.724;2022-10-04T00:01:50;7.80;99.90
23729;DHT22;12045;60.214;24.724;2022-10-04T00:06:54;7.90;99.90
23729;DHT22;12045;60.214;24.724;2022-10-04T00:09:28;7.80;99.90
23729;DHT22;12045;60.214;24.724;2022-10-04T00:11:59;7.80;99.90
23729;DHT22;12045;60.214;24.724;2022-10-04T00:14:30;7.80;99.90
23729;DHT22;12045;60.214;24.724;2022-10-04T00:17:10;7.80;99.90
23729;DHT22;12045;60.214;24.724;2022-10-04T00:19:40;7.90;99.90
23729;DHT22;12045;60.214;24.724;2022-10-04T00:22:11;7.80;99.90
23729;DHT22;12045;60.214;24.724;2022-10-04T00:25:20;7.80;99.90
23729;DHT22;12045;60.214;24.724;2022-10-04T00:28:26;7.80;99.90
23729;DHT22;12045;60.214;24.724;2022-10-04T00:31:19;7.80;99.90
23729;DHT22;12045;60.214;24.724;2022-10-04T00:33:55;7.70;99.90
23729;DHT22;12045;60.214;24.724;2022-10-04T00:41:51;7.60;99.90
23729;DHT22;12045;60.214;24.724;2022-10-04T00:44:32;7.70;99.90
23729;DHT22;12045;60.214;24.724;2022-10-04T00:49:46;8.20;99.90
23729;DHT22;12045;60.214;24.724;2022-10-04T00:52:19;7.70;99.90
23729;DHT22;12045;60.214;24.724;2022-10-04T00:54:52;7.70;99.90
23729;DHT22;12045;60.214;24.724;2022-10-04T00:57:29;7.60;99.90
23729;DHT22;12045;60.214;24.724;2022-10-04T01:00:14;7.60;99.90
23729;DHT22;12045;60.214;24.724;2022-10-04T01:05:17;7.60;99.90
23729;DHT22;12045;60.214;24.724;2022-10-04T01:07:50;7.60;99.90
23729;DHT22;12045;60.214;24.724;2022-10-04T01:10:31;7.60;99.90
23729;DHT22;12045;60.214;24.724;2022-10-04T01:13:19;7.50;99.90
23729;DHT22;12045;60.214;24.724;2022-10-04T01:15:54;7.60;99.90
23729;DHT22;12045;60.214;24.724;2022-10-04T01:31:32;7.40;99.90
23729;DHT22;12045;60.214;24.724;2022-10-04T01:34:01;7.50;99.90
23729;DHT22;12045;60.214;24.724;2022-10-04T01:36:29;7.40;99.90
23729;DHT22;12045;60.214;24.724;2022-10-04T01:38:57;7.40;99.90
23729;DHT22;12045;60.214;24.724;2022-10-04T01:41:45;7.50;99.90
23729;DHT22;12045;60.214;24.724;2022-10-04T01:47:10;7.40;99.90
23729;DHT22;12045;60.214;24.724;2022-10-04T01:49:42;7.30;99.90
23729;DHT22;12045;60.214;24.724;2022-10-04T01:52:21;7.30;99.90
23729;DHT22;12045;60.214;24.724;2022-10-04T01:54:59;7.30;99.90
23729;DHT22;12045;60.214;24.724;2022-10-04T01:57:45;7.30;99.90
23729;DHT22;12045;60.214;24.724;2022-10-04T02:00:15;7.40;99.90
23729;DHT22;12045;60.214;24.724;2022-10-04T02:02:58;7.30;99.90
23729;DHT22;12045;60.214;24.724;2022-10-04T02:05:33;7.30;99.90
23729;DHT22;12045;60.214;24.724;2022-10-04T02:08:05;7.20;99.90
23729;DHT22;12045;60.214;24.724;2022-10-04T02:10:35;7.30;99.90
23729;DHT22;12045;60.214;24.724;2022-10-04T02:13:13;7.20;99.90
23729;DHT22;12045;60.214;24.724;2022-10-04T02:15:41;7.30;99.90
23729;DHT22;12045;60.214;24.724;2022-10-04T02:18:13;7.20;99.90
23729;DHT22;12045;60.214;24.724;2022-10-04T02:20:41;7.20;99.90
23729;DHT22;12045;60.214;24.724;2022-10-04T02:23:11;7.20;99.90
23729;DHT22;12045;60.214;24.724;2022-10-04T02:25:40;7.30;99.90
23729;DHT22;12045;60.214;24.724;2022-10-04T02:28:11;7.30;99.90
23729;DHT22;12045;60.214;24.724;2022-10-04T02:30:49;7.40;99.90
23729;DHT22;12045;60.214;24.724;2022-10-04T02:33:40;7.30;99.90
23729;DHT22;12045;60.214;24.724;2022-10-04T02:36:09;7.30;99.90
23729;DHT22;12045;60.214;24.724;2022-10-04T02:38:43;7.30;99.90
23729;DHT22;12045;60.214;24.724;2022-10-04T02:41:25;7.40;99.90
23729;DHT22;12045;60.214;24.724;2022-10-04T02:49:40;7.40;99.90
23729;DHT22;12045;60.214;24.724;2022-10-04T02:54:47;7.40;99.90
23729;DHT22;12045;60.214;24.724;2022-10-04T02:57:20;7.40;99.90
23729;DHT22;12045;60.214;24.724;2022-10-04T02:59:49;7.40;99.90
23729;DHT22;12045;60.214;24.724;2022-10-04T03:02:25;7.40;99.90
23729;DHT22;12045;60.214;24.724;2022-10-04T03:05:04;7.40;99.90
23729;DHT22;12045;60.214;24.724;2022-10-04T03:07:34;7.40;99.90
23729;DHT22;12045;60.214;24.724;2022-10-04T03:10:07;7.40;99.90
23729;DHT22;12045;60.214;24.724;2022-10-04T03:12:37;7.40;99.90
23729;DHT22;12045;60.214;24.724;2022-10-04T03:15:09;7.40;99.90
23729;DHT22;12045;60.214;24.724;2022-10-04T03:17:39;7.40;99.90
23729;DHT22;12045;60.214;24.724;2022-10-04T03:20:09;7.50;99.90
23729;DHT22;12045;60.214;24.724;2022-10-04T03:22:43;7.40;99.90
23729;DHT22;12045;60.214;24.724;2022-10-04T03:25:25;7.40;99.90
23729;DHT22;12045;60.214;24.724;2022-10-04T03:27:58;7.40;99.90
23729;DHT22;12045;60.214;24.724;2022-10-04T03:30:29;8.40;99.90
23729;DHT22;12045;60.214;24.724;2022-10-04T03:32:58;7.40;99.90
23729;DHT22;12045;60.214;24.724;2022-10-04T03:35:35;7.40;99.90
23729;DHT22;12045;60.214;24.724;2022-10-04T03:38:06;7.50;99.90
23729;DHT22;12045;60.214;24.724;2022-10-04T03:40:36;7.40;99.90
23729;DHT22;12045;60.214;24.724;2022-10-04T03:43:04;7.90;99.90
23729;DHT22;12045;60.214;24.724;2022-10-04T03:45:33;7.50;99.90
23729;DHT22;12045;60.214;24.724;2022-10-04T03:48:05;7.50;99.90
23729;DHT22;12045;60.214;24.724;2022-10-04T03:50:38;7.50;99.90
23729;DHT22;12045;60.214;24.724;2022-10-04T03:53:39;7.40;99.90
23729;DHT22;12045;60.214;24.724;2022-10-04T03:56:25;7.40;99.90
23729;DHT22;12045;60.214;24.724;2022-10-04T03:58:54;7.50;99.90
23729;DHT22;12045;60.214;24.724;2022-10-04T04:07:01;7.40;99.90
23729;DHT22;12045;60.214;24.724;2022-10-04T04:12:07;7.40;99.90
23729;DHT22;12045;60.214;24.724;2022-10-04T04:14:36;7.40;99.90
23729;DHT22;12045;60.214;24.724;2022-10-04T04:25:44;7.40;99.90
23729;DHT22;12045;60.214;24.724;2022-10-04T04:28:29;7.40;99.90
23729;DHT22;12045;60.214;24.724;2022-10-04T04:31:23;7.40;99.90
23729;DHT22;12045;60.214;24.724;2022-10-04T04:36:28;7.40;99.90
23729;DHT22;12045;60.214;24.724;2022-10-04T04:42:09;7.40;99.90
23729;DHT22;12045;60.214;24.724;2022-10-04T04:44:45;7.40;99.90
23729;DHT22;12045;60.214;24.724;2022-10-04T04:48:11;7.40;99.90
23729;DHT22;12045;60.214;24.724;2022-10-04T04:50:34;7.30;99.90
23729;DHT22;12045;60.214;24.724;2022-10-04T04:53:16;7.40;99.90
23729;DHT22;12045;60.214;24.724;2022-10-04T04:56:00;7.40;99.90
23729;DHT22;12045;60.214;24.724;2022-10-04T04:58:42;7.30;99.90
23729;DHT22;12045;60.214;24.724;2022-10-04T05:01:33;7.50;99.90
23729;DHT22;12045;60.214;24.724;2022-10-04T05:06:43;7.40;99.90
23729;DHT22;12045;60.214;24.724;2022-10-04T05:12:17;6.90;99.90
23729;DHT22;12045;60.214;24.724;2022-10-04T05:14:53;7.70;99.90
23729;DHT22;12045;60.214;24.724;2022-10-04T05:17:32;7.40;99.90
23729;DHT22;12045;60.214;24.724;2022-10-04T05:20:06;7.90;99.90
23729;DHT22;12045;60.214;24.724;2022-10-04T05:22:34;7.40;99.90
23729;DHT22;12045;60.214;24.724;2022-10-04T05:25:09;7.40;99.90
23729;DHT22;12045;60.214;24.724;2022-10-04T05:27:43;7.50;99.90
23729;DHT22;12045;60.214;24.724;2022-10-04T05:30:43;7.50;99.90
23729;DHT22;12045;60.214;24.724;2022-10-04T05:33:37;7.50;99.90
23729;DHT22;12045;60.214;24.724;2022-10-04T05:44:49;7.60;99.90
23729;DHT22;12045;60.214;24.724;2022-10-04T05:47:22;7.60;99.90
23729;DHT22;12045;60.214;24.724;2022-10-04T05:49:54;7.60;99.90
23729;DHT22;12045;60.214;24.724;2022-10-04T05:52:33;7.60;99.90
23729;DHT22;12045;60.214;24.724;2022-10-04T06:00:22;8.00;99.90
23729;DHT22;12045;60.214;24.724;2022-10-04T06:03:08;7.60;99.90
23729;DHT22;12045;60.214;24.724;2022-10-04T06:05:49;8.00;99.90
23729;DHT22;12045;60.214;24.724;2022-10-04T06:22:17;7.80;99.90
23729;DHT22;12045;60.214;24.724;2022-10-04T06:24:56;7.80;99.90
23729;DHT22;12045;60.214;24.724;2022-10-04T06:30:11;7.80;99.90
23729;DHT22;12045;60.214;24.724;2022-10-04T06:39:09;7.90;99.90
23729;DHT22;12045;60.214;24.724;2022-10-04T06:41:57;7.90;99.90
23729;DHT22;12045;60.214;24.724;2022-10-04T06:50:24;7.80;99.90
23729;DHT22;12045;60.214;24.724;2022-10-04T07:01:33;7.80;99.90
23729;DHT22;12045;60.214;24.724;2022-10-04T07:04:27;7.80;99.90
23729;DHT22;12045;60.214;24.724;2022-10-04T07:07:29;7.90;99.90
23729;DHT22;12045;60.214;24.724;2022-10-04T07:19:35;8.00;99.90
23729;DHT22;12045;60.214;24.724;2022-10-04T07:27:29;8.00;99.90
23729;DHT22;12045;60.214;24.724;2022-10-04T07:30:02;8.00;99.90
23729;DHT22;12045;60.214;24.724;2022-10-04T07:32:35;8.10;99.90
23729;DHT22;12045;60.214;24.724;2022-10-04T07:37:59;8.10;99.90
23729;DHT22;12045;60.214;24.724;2022-10-04T07:40:36;8.10;99.90
23729;DHT22;12045;60.214;24.724;2022-10-04T07:43:18;8.30;99.90
23729;DHT22;12045;60.214;24.724;2022-10-04T07:45:47;8.10;99.90
23729;DHT22;12045;60.214;24.724;2022-10-04T07:48:20;8.20;99.90
23729;DHT22;12045;60.214;24.724;2022-10-04T07:51:18;8.40;99.90
23729;DHT22;12045;60.214;24.724;2022-10-04T08:04:55;8.80;99.90
23729;DHT22;12045;60.214;24.724;2022-10-04T08:16:36;8.90;99.90
23729;DHT22;12045;60.214;24.724;2022-10-04T08:29:22;8.90;99.90
23729;DHT22;12045;60.214;24.724;2022-10-04T08:32:40;8.70;99.90
23729;DHT22;12045;60.214;24.724;2022-10-04T08:38:24;8.60;99.90
23729;DHT22;12045;60.214;24.724;2022-10-04T08:48:04;8.90;99.90
23729;DHT22;12045;60.214;24.724;2022-10-04T08:59:26;9.50;99.90
23729;DHT22;12045;60.214;24.724;2022-10-04T09:17:17;9.20;99.90
23729;DHT22;12045;60.214;24.724;2022-10-04T09:22:45;9.40;99.90
23729;DHT22;12045;60.214;24.724;2022-10-04T09:28:37;9.60;99.90
23729;DHT22;12045;60.214;24.724;2022-10-04T09:34:28;9.60;99.90
23729;DHT22;12045;60.214;24.724;2022-10-04T09:40:50;9.60;99.90
23729;DHT22;12045;60.214;24.724;2022-10-04T09:43:02;9.60;99.90
23729;DHT22;12045;60.214;24.724;2022-10-04T09:52:00;9.60;99.90
23729;DHT22;12045;60.214;24.724;2022-10-04T10:00:57;9.60;99.90
23729;DHT22;12045;60.214;24.724;2022-10-04T10:04:22;10.20;99.90
23729;DHT22;12045;60.214;24.724;2022-10-04T10:35:26;9.80;99.90
23729;DHT22;12045;60.214;24.724;2022-10-04T10:47:12;9.90;99.90
23729;DHT22;12045;60.214;24.724;2022-10-04T11:02:09;10.00;99.90
23729;DHT22;12045;60.214;24.724;2022-10-04T11:22:35;9.90;99.90
23729;DHT22;12045;60.214;24.724;2022-10-04T11:36:36;10.30;99.90
23729;DHT22;12045;60.214;24.724;2022-10-04T11:39:38;10.20;99.90
23729;DHT22;12045;60.214;24.724;2022-10-04T11:42:43;10.20;99.90
23729;DHT22;12045;60.214;24.724;2022-10-04T11:45:52;10.10;99.90
23729;DHT22;12045;60.214;24.724;2022-10-04T11:54:44;10.20;99.90
23729;DHT22;12045;60.214;24.724;2022-10-04T12:00:24;9.80;99.90
23729;DHT22;12045;60.214;24.724;2022-10-04T12:06:02;10.20;99.90
23729;DHT22;12045;60.214;24.724;2022-10-04T12:15:20;10.20;99.90
23729;DHT22;12045;60.214;24.724;2022-10-04T12:33:50;11.30;99.90
23729;DHT22;12045;60.214;24.724;2022-10-04T12:39:25;10.50;99.90
23729;DHT22;12045;60.214;24.724;2022-10-04T12:53:25;10.30;99.90
23729;DHT22;12045;60.214;24.724;2022-10-04T12:56:14;10.40;99.90
23729;DHT22;12045;60.214;24.724;2022-10-04T13:07:36;10.20;99.90
23729;DHT22;12045;60.214;24.724;2022-10-04T13:19:34;10.30;99.90
23729;DHT22;12045;60.214;24.724;2022-10-04T13:27:56;10.40;99.90
23729;DHT22;12045;60.214;24.724;2022-10-04T13:33:34;11.10;99.90
23729;DHT22;12045;60.214;24.724;2022-10-04T13:36:12;10.40;99.90
23729;DHT22;12045;60.214;24.724;2022-10-04T13:41:35;10.30;99.90
23729;DHT22;12045;60.214;24.724;2022-10-04T13:52:39;10.40;99.90
23729;DHT22;12045;60.214;24.724;2022-10-04T13:55:58;10.40;99.90
23729;DHT22;12045;60.214;24.724;2022-10-04T13:58:56;10.40;99.90
23729;DHT22;12045;60.214;24.724;2022-10-04T14:04:46;10.30;99.90
23729;DHT22;12045;60.214;24.724;2022-10-04T14:27:36;10.30;99.90
23729;DHT22;12045;60.214;24.724;2022-10-04T14:53:14;10.20;99.90
23729;DHT22;12045;60.214;24.724;2022-10-04T14:58:45;10.20;99.90
23729;DHT22;12045;60.214;24.724;2022-10-04T15:01:20;10.10;99.90
23729;DHT22;12045;60.214;24.724;2022-10-04T15:07:00;10.20;99.90
23729;DHT22;12045;60.214;24.724;2022-10-04T15:10:06;10.20;99.90
23729;DHT22;12045;60.214;24.724;2022-10-04T15:12:52;10.20;99.90
23729;DHT22;12045;60.214;24.724;2022-10-04T15:15:51;10.20;99.90
23729;DHT22;12045;60.214;24.724;2022-10-04T15:18:24;10.20;99.90
23729;DHT22;12045;60.214;24.724;2022-10-04T15:21:10;10.20;99.90
23729;DHT22;12045;60.214;24.724;2022-10-04T15:23:58;10.40;99.90
23729;DHT22;12045;60.214;24.724;2022-10-04T15:30:00;10.10;99.90
23729;DHT22;12045;60.214;24.724;2022-10-04T15:32:29;10.10;99.90
23729;DHT22;12045;60.214;24.724;2022-10-04T15:35:29;10.10;99.90
23729;DHT22;12045;60.214;24.724;2022-10-04T15:49:18;10.30;99.90
23729;DHT22;12045;60.214;24.724;2022-10-04T15:55:20;10.40;99.90
23729;DHT22;12045;60.214;24.724;2022-10-04T15:58:16;10.20;99.90
23729;DHT22;12045;60.214;24.724;2022-10-04T16:00:55;10.20;99.90
23729;DHT22;12045;60.214;24.724;2022-10-04T16:06:29;10.20;99.90
23729;DHT22;12045;60.214;24.724;2022-10-04T16:17:16;10.20;99.90
23729;DHT22;12045;60.214;24.724;2022-10-04T16:37:38;10.10;99.90
23729;DHT22;12045;60.214;24.724;2022-10-04T16:45:44;10.10;99.90
23729;DHT22;12045;60.214;24.724;2022-10-04T16:56:11;10.10;99.90
23729;DHT22;12045;60.214;24.724;2022-10-04T16:58:48;10.10;99.90
23729;DHT22;12045;60.214;24.724;2022-10-04T17:07:17;10.10;99.90
23729;DHT22;12045;60.214;24.724;2022-10-04T17:17:03;10.00;99.90
23729;DHT22;12045;60.214;24.724;2022-10-04T17:19:45;10.00;99.90
23729;DHT22;12045;60.214;24.724;2022-10-04T17:25:01;9.90;99.90
23729;DHT22;12045;60.214;24.724;2022-10-04T17:41:40;9.90;99.90
23729;DHT22;12045;60.214;24.724;2022-10-04T17:50:39;9.90;99.90
23729;DHT22;12045;60.214;24.724;2022-10-04T17:53:33;9.90;99.90
23729;DHT22;12045;60.214;24.724;2022-10-04T17:56:38;9.80;99.90
23729;DHT22;12045;60.214;24.724;2022-10-04T17:59:15;9.80;99.90
23729;DHT22;12045;60.214;24.724;2022-10-04T18:02:08;9.80;99.90
23729;DHT22;12045;60.214;24.724;2022-10-04T18:04:46;9.80;99.90
23729;DHT22;12045;60.214;24.724;2022-10-04T18:07:30;9.70;99.90
23729;DHT22;12045;60.214;24.724;2022-10-04T18:18:23;9.70;99.90
23729;DHT22;12045;60.214;24.724;2022-10-04T18:23:26;9.60;99.90
23729;DHT22;12045;60.214;24.724;2022-10-04T18:26:13;9.50;99.90
23729;DHT22;12045;60.214;24.724;2022-10-04T18:28:46;9.40;99.90
23729;DHT22;12045;60.214;24.724;2022-10-04T18:34:00;9.30;99.90
23729;DHT22;12045;60.214;24.724;2022-10-04T18:36:30;8.70;99.90
23729;DHT22;12045;60.214;24.724;2022-10-04T18:42:39;9.00;99.90
23729;DHT22;12045;60.214;24.724;2022-10-04T18:45:16;8.90;99.90
23729;DHT22;12045;60.214;24.724;2022-10-04T18:47:37;8.80;99.90
23729;DHT22;12045;60.214;24.724;2022-10-04T18:58:27;8.90;99.90
23729;DHT22;12045;60.214;24.724;2022-10-04T19:10:34;8.60;99.90
23729;DHT22;12045;60.214;24.724;2022-10-04T19:26:46;8.50;99.90
23729;DHT22;12045;60.214;24.724;2022-10-04T19:29:39;8.50;99.90
23729;DHT22;12045;60.214;24.724;2022-10-04T19:38:46;8.20;99.90
23729;DHT22;12045;60.214;24.724;2022-10-04T19:41:20;7.90;99.90
23729;DHT22;12045;60.214;24.724;2022-10-04T19:46:41;7.80;99.90
23729;DHT22;12045;60.214;24.724;2022-10-04T19:49:24;7.80;99.90
23729;DHT22;12045;60.214;24.724;2022-10-04T19:52:09;7.60;99.90
23729;DHT22;12045;60.214;24.724;2022-10-04T19:54:39;7.50;99.90
23729;DHT22;12045;60.214;24.724;2022-10-04T19:57:12;7.20;99.90
23729;DHT22;12045;60.214;24.724;2022-10-04T19:59:44;7.20;99.90
23729;DHT22;12045;60.214;24.724;2022-10-04T20:02:15;7.20;99.90
23729;DHT22;12045;60.214;24.724;2022-10-04T20:04:43;7.00;99.90
23729;DHT22;12045;60.214;24.724;2022-10-04T20:07:23;7.30;99.90
23729;DHT22;12045;60.214;24.724;2022-10-04T20:10:05;6.90;99.90
23729;DHT22;12045;60.214;24.724;2022-10-04T20:15:54;6.80;99.90
23729;DHT22;12045;60.214;24.724;2022-10-04T20:26:52;7.20;99.90
23729;DHT22;12045;60.214;24.724;2022-10-04T20:34:47;7.40;99.90
23729;DHT22;12045;60.214;24.724;2022-10-04T20:37:15;7.40;99.90
23729;DHT22;12045;60.214;24.724;2022-10-04T20:42:31;6.40;99.90
23729;DHT22;12045;60.214;24.724;2022-10-04T20:50:19;7.40;99.90
23729;DHT22;12045;60.214;24.724;2022-10-04T20:52:50;7.50;99.90
23729;DHT22;12045;60.214;24.724;2022-10-04T20:55:44;7.50;99.90
23729;DHT22;12045;60.214;24.724;2022-10-04T20:58:31;7.40;99.90
23729;DHT22;12045;60.214;24.724;2022-10-04T21:01:04;7.20;99.90
23729;DHT22;12045;60.214;24.724;2022-10-04T21:03:43;7.10;99.90
23729;DHT22;12045;60.214;24.724;2022-10-04T21:06:11;7.00;99.90
23729;DHT22;12045;60.214;24.724;2022-10-04T21:08:39;6.90;99.90
23729;DHT22;12045;60.214;24.724;2022-10-04T21:11:20;6.90;99.90
23729;DHT22;12045;60.214;24.724;2022-10-04T21:14:00;6.70;99.90
23729;DHT22;12045;60.214;24.724;2022-10-04T21:21:57;6.20;99.90
23729;DHT22;12045;60.214;24.724;2022-10-04T21:24:52;6.10;99.90
23729;DHT22;12045;60.214;24.724;2022-10-04T21:27:34;6.00;99.90
23729;DHT22;12045;60.214;24.724;2022-10-04T21:30:22;6.00;99.90
23729;DHT22;12045;60.214;24.724;2022-10-04T21:32:50;6.00;99.90
23729;DHT22;12045;60.214;24.724;2022-10-04T21:35:18;6.10;99.90
23729;DHT22;12045;60.214;24.724;2022-10-04T21:37:46;6.20;99.90
23729;DHT22;12045;60.214;24.724;2022-10-04T21:40:14;6.40;99.90
23729;DHT22;12045;60.214;24.724;2022-10-04T21:42:41;6.40;99.90
23729;DHT22;12045;60.214;24.724;2022-10-04T21:45:09;6.40;99.90
23729;DHT22;12045;60.214;24.724;2022-10-04T21:47:37;6.40;99.90
23729;DHT22;12045;60.214;24.724;2022-10-04T21:50:04;6.40;99.90
23729;DHT22;12045;60.214;24.724;2022-10-04T21:52:32;6.40;99.90
23729;DHT22;12045;60.214;24.724;2022-10-04T21:54:59;6.50;99.90
23729;DHT22;12045;60.214;24.724;2022-10-04T21:57:27;6.50;99.90
23729;DHT22;12045;60.214;24.724;2022-10-04T22:00:01;6.60;99.90
23729;DHT22;12045;60.214;24.724;2022-10-04T22:02:29;6.60;99.90
23729;DHT22;12045;60.214;24.724;2022-10-04T22:04:56;6.60;99.90
23729;DHT22;12045;60.214;24.724;2022-10-04T22:07:24;6.60;99.90
23729;DHT22;12045;60.214;24.724;2022-10-04T22:09:52;6.60;99.90
23729;DHT22;12045;60.214;24.724;2022-10-04T22:12:19;6.70;99.90
23729;DHT22;12045;60.214;24.724;2022-10-04T22:14:47;6.30;99.90
23729;DHT22;12045;60.214;24.724;2022-10-04T22:17:14;6.70;99.90
23729;DHT22;12045;60.214;24.724;2022-10-04T22:19:42;6.70;99.90
23729;DHT22;12045;60.214;24.724;2022-10-04T22:22:17;6.70;99.90
23729;DHT22;12045;60.214;24.724;2022-10-04T22:24:44;6.60;99.90
23729;DHT22;12045;60.214;24.724;2022-10-04T22:27:14;6.60;99.90
23729;DHT22;12045;60.214;24.724;2022-10-04T22:29:42;6.60;99.90
23729;DHT22;12045;60.214;24.724;2022-10-04T22:32:21;6.40;99.90
23729;DHT22;12045;60.214;24.724;2022-10-04T22:35:13;6.20;99.90
23729;DHT22;12045;60.214;24.724;2022-10-04T22:37:41;6.20;99.90
23729;DHT22;12045;60.214;24.724;2022-10-04T22:40:19;6.20;99.90
23729;DHT22;12045;60.214;24.724;2022-10-04T22:42:51;6.20;99.90
23729;DHT22;12045;60.214;24.724;2022-10-04T22:45:25;6.30;99.90
23729;DHT22;12045;60.214;24.724;2022-10-04T22:47:56;6.40;99.90
23729;DHT22;12045;60.214;24.724;2022-10-04T22:50:31;6.40;99.90
23729;DHT22;12045;60.214;24.724;2022-10-04T22:53:20;6.20;99.90
23729;DHT22;12045;60.214;24.724;2022-10-04T22:55:49;5.90;99.90
23729;DHT22;12045;60.214;24.724;2022-10-04T22:58:17;5.70;99.90
23729;DHT22;12045;60.214;24.724;2022-10-04T23:00:48;5.00;99.90
23729;DHT22;12045;60.214;24.724;2022-10-04T23:03:31;5.70;99.90
23729;DHT22;12045;60.214;24.724;2022-10-04T23:06:00;5.70;99.90
23729;DHT22;12045;60.214;24.724;2022-10-04T23:08:29;5.80;99.90
23729;DHT22;12045;60.214;24.724;2022-10-04T23:10:58;5.80;99.90
23729;DHT22;12045;60.214;24.724;2022-10-04T23:13:27;5.70;99.90
23729;DHT22;12045;60.214;24.724;2022-10-04T23:15:57;5.70;99.90
23729;DHT22;12045;60.214;24.724;2022-10-04T23:18:27;5.40;99.90
23729;DHT22;12045;60.214;24.724;2022-10-04T23:20:58;5.40;99.90
23729;DHT22;12045;60.214;24.724;2022-10-04T23:23:28;5.40;99.90
23729;DHT22;12045;60.214;24.724;2022-10-04T23:25:56;5.50;99.90
23729;DHT22;12045;60.214;24.724;2022-10-04T23:28:24;5.70;99.90
23729;DHT22;12045;60.214;24.724;2022-10-04T23:31:00;5.90;99.90
23729;DHT22;12045;60.214;24.724;2022-10-04T23:33:28;6.00;99.90
23729;DHT22;12045;60.214;24.724;2022-10-04T23:35:56;5.90;99.90
23729;DHT22;12045;60.214;24.724;2022-10-04T23:38:24;5.80;99.90
23729;DHT22;12045;60.214;24.724;2022-10-04T23:40:51;5.90;99.90
23729;DHT22;12045;60.214;24.724;2022-10-04T23:43:22;5.90;99.90
23729;DHT22;12045;60.214;24.724;2022-10-04T23:45:53;5.80;99.90
23729;DHT22;12045;60.214;24.724;2022-10-04T23:48:24;5.90;99.90
23729;DHT22;12045;60.214;24.724;2022-10-04T23:50:54;5.90;99.90
23729;DHT22;12045;60.214;24.724;2022-10-04T23:53:25;5.90;99.90
23729;DHT22;12045;60.214;24.724;2022-10-04T23:55:54;5.80;99.90
23729;DHT22;12045;60.214;24.724;2022-10-04T23:58:26;5.70;99.90
